createdAt,value
2022-11-02T00:01:44.974Z,10.76
2022-11-02T00:05:46.693Z,10.73
2022-11-02T00:09:48.561Z,10.75
2022-11-02T00:13:50.734Z,10.81
2022-11-02T00:17:58.454Z,10.81
2022-11-02T00:22:01.953Z,10.85
2022-11-02T00:26:04.404Z,10.84
2022-11-02T00:30:06.817Z,10.81
2022-11-02T00:34:08.736Z,10.86
2022-11-02T00:38:10.527Z,10.86
2022-11-02T00:42:12.409Z,10.79
2022-11-02T00:46:14.553Z,10.90
2022-11-02T00:50:17.280Z,10.90
2022-11-02T00:54:20.096Z,10.84
2022-11-02T00:58:25.288Z,10.80
2022-11-02T01:02:27.474Z,10.83
2022-11-02T01:06:29.445Z,10.86
2022-11-02T01:10:31.143Z,10.91
2022-11-02T01:14:33.301Z,10.87
2022-11-02T01:18:35.288Z,10.98
2022-11-02T01:22:37.164Z,10.92
2022-11-02T01:26:38.844Z,10.81
2022-11-02T01:30:40.755Z,10.87
2022-11-02T01:34:42.854Z,10.90
2022-11-02T01:38:44.903Z,10.82
2022-11-02T01:42:46.562Z,10.93
2022-11-02T01:46:48.494Z,10.88
2022-11-02T01:50:50.447Z,11.02
2022-11-02T01:54:56.079Z,11.02
2022-11-02T01:59:01.761Z,10.99
2022-11-02T02:03:10.260Z,10.94
2022-11-02T02:07:14.538Z,10.98
2022-11-02T02:11:34.727Z,10.90
2022-11-02T02:15:48.617Z,10.83
2022-11-02T02:19:58.701Z,10.90
2022-11-02T02:24:20.847Z,10.90
2022-11-02T02:28:38.925Z,10.98
2022-11-02T02:32:57.286Z,10.96
2022-11-02T02:37:07.805Z,11.00
2022-11-02T02:41:29.248Z,11.08
2022-11-02T02:45:44.613Z,11.00
2022-11-02T02:49:54.321Z,11.07
2022-11-02T02:54:17.832Z,10.99
2022-11-02T02:58:24.543Z,10.99
2022-11-02T03:02:36.386Z,11.07
2022-11-02T03:06:38.956Z,11.07
2022-11-02T03:10:55.094Z,11.13
2022-11-02T03:15:15.047Z,11.18
2022-11-02T03:19:24.570Z,11.17
2022-11-02T03:23:33.141Z,11.17
2022-11-02T03:27:54.338Z,11.15
2022-11-02T03:32:08.110Z,11.11
2022-11-02T03:36:18.937Z,11.24
2022-11-02T03:40:28.874Z,11.35
2022-11-02T03:44:35.673Z,11.28
2022-11-02T03:48:44.234Z,11.36
2022-11-02T03:52:53.590Z,11.36
2022-11-02T04:01:11.601Z,11.26
2022-11-02T04:05:14.959Z,11.33
2022-11-02T04:09:18.033Z,11.32
2022-11-02T04:13:39.236Z,11.46
2022-11-02T04:18:00.196Z,11.55
2022-11-02T04:22:20.805Z,11.46
2022-11-02T04:26:27.834Z,11.46
2022-11-02T04:30:29.904Z,11.42
2022-11-02T04:34:33.913Z,11.51
2022-11-02T04:38:42.317Z,11.53
2022-11-02T04:43:13.756Z,11.58
2022-11-02T04:47:16.242Z,11.68
2022-11-02T04:51:20.695Z,11.64
2022-11-02T04:55:23.066Z,11.74
2022-11-02T04:59:25.537Z,11.80
2022-11-02T05:03:28.211Z,11.71
2022-11-02T05:07:30.152Z,11.78
2022-11-02T05:11:32.554Z,11.80
2022-11-02T05:15:35.131Z,11.95
2022-11-02T05:19:40.439Z,11.86
2022-11-02T05:23:42.408Z,11.88
2022-11-02T05:27:44.740Z,11.88
2022-11-02T05:31:47.341Z,11.89
2022-11-02T05:35:49.200Z,11.95
2022-11-02T05:39:51.198Z,11.85
2022-11-02T05:43:53.514Z,11.95
2022-11-02T05:48:00.436Z,11.95
2022-11-02T05:52:02.076Z,11.98
2022-11-02T05:56:09.816Z,12.10
2022-11-02T06:00:11.978Z,12.06
2022-11-02T06:04:14.304Z,12.08
2022-11-02T06:08:16.093Z,12.12
2022-11-02T06:12:18.398Z,12.13
2022-11-02T06:16:23.327Z,12.17
2022-11-02T06:20:25.692Z,12.19
2022-11-02T06:24:27.360Z,12.30
2022-11-02T06:28:29.960Z,12.34
2022-11-02T06:32:32.633Z,12.27
2022-11-02T06:36:34.473Z,12.34
2022-11-02T06:40:36.092Z,12.42
2022-11-02T06:44:38.170Z,12.41
2022-11-02T06:48:40.112Z,12.44
2022-11-02T06:52:46.918Z,12.43
2022-11-02T06:56:48.760Z,12.53
2022-11-02T07:00:51.147Z,12.65
2022-11-02T07:04:52.820Z,12.55
2022-11-02T07:08:55.440Z,12.62
2022-11-02T07:12:57.864Z,12.64
2022-11-02T07:16:59.687Z,12.56
2022-11-02T07:21:02.519Z,12.66
2022-11-02T07:25:04.930Z,12.77
2022-11-02T07:29:06.596Z,12.83
2022-11-02T07:33:08.816Z,12.86
2022-11-02T07:37:10.622Z,12.98
2022-11-02T07:41:12.592Z,13.09
2022-11-02T07:45:14.442Z,13.07
2022-11-02T07:49:21.269Z,13.17
2022-11-02T07:53:23.330Z,13.21
2022-11-02T07:57:25.246Z,13.23
2022-11-02T08:01:26.903Z,13.22
2022-11-02T08:05:30.867Z,13.32
2022-11-02T08:09:32.631Z,13.37
2022-11-02T08:13:45.282Z,13.48
2022-11-02T08:17:47.001Z,13.52
2022-11-02T08:21:49.629Z,13.70
2022-11-02T08:25:52.413Z,13.74
2022-11-02T08:29:55.370Z,13.99
2022-11-02T08:33:58.520Z,14.17
2022-11-02T08:38:00.557Z,14.21
2022-11-02T08:42:02.151Z,14.22
2022-11-02T08:46:19.919Z,14.54
2022-11-02T08:50:22.371Z,14.54
2022-11-02T08:54:24.406Z,14.62
2022-11-02T08:58:26.434Z,14.46
2022-11-02T09:02:28.417Z,14.48
2022-11-02T09:06:30.087Z,14.59
2022-11-02T09:10:34.248Z,14.74
2022-11-02T09:14:35.838Z,14.76
2022-11-02T09:18:38.208Z,14.75
2022-11-02T09:22:39.842Z,14.78
2022-11-02T09:26:41.814Z,14.81
2022-11-02T09:30:43.844Z,14.72
2022-11-02T09:34:47.453Z,14.47
2022-11-02T09:38:49.754Z,14.39
2022-11-02T09:43:03.232Z,14.46
2022-11-02T09:47:49.923Z,14.50
2022-11-02T09:51:42.892Z,14.53
2022-11-02T09:55:52.259Z,14.53
2022-11-02T09:59:54.583Z,14.33
2022-11-02T10:04:20.900Z,14.15
2022-11-02T10:08:26.720Z,14.47
2022-11-02T10:12:41.908Z,14.54
2022-11-02T10:16:57.178Z,14.34
2022-11-02T10:21:02.515Z,14.16
2022-11-02T10:25:06.817Z,14.19
2022-11-02T10:29:18.212Z,14.10
2022-11-02T10:33:28.702Z,13.99
2022-11-02T10:37:42.454Z,14.16
2022-11-02T10:42:17.735Z,14.07
2022-11-02T10:46:38.259Z,14.15
2022-11-02T10:50:57.088Z,14.05
2022-11-02T10:54:58.774Z,14.07
2022-11-02T10:59:16.229Z,14.13
2022-11-02T11:03:19.261Z,14.19
2022-11-02T11:07:27.252Z,14.30
2022-11-02T11:11:33.653Z,14.45
2022-11-02T11:15:51.455Z,14.40
2022-11-02T11:19:55.998Z,14.31
2022-11-02T11:24:22.178Z,14.47
2022-11-02T11:28:44.222Z,14.65
2022-11-02T11:32:47.783Z,14.79
2022-11-02T11:36:49.428Z,14.88
2022-11-02T11:40:54.635Z,14.76
2022-11-02T11:45:04.362Z,14.85
2022-11-02T11:49:20.808Z,14.78
2022-11-02T11:53:26.410Z,14.89
2022-11-02T11:57:31.473Z,15.38
2022-11-02T12:01:40.325Z,15.22
2022-11-02T12:06:30.204Z,14.76
2022-11-02T12:11:01.593Z,14.32
2022-11-02T12:15:30.905Z,14.08
2022-11-02T12:20:03.753Z,13.99
2022-11-02T12:24:31.738Z,14.03
2022-11-02T12:28:55.220Z,14.27
2022-11-02T12:33:08.477Z,14.43
2022-11-02T12:37:41.373Z,14.43
2022-11-02T12:41:54.088Z,14.44
2022-11-02T12:46:04.764Z,14.55
2022-11-02T12:50:25.220Z,14.75
2022-11-02T12:54:40.574Z,14.70
2022-11-02T12:58:44.542Z,14.60
2022-11-02T13:03:04.908Z,14.65
2022-11-02T13:07:13.429Z,14.52
2022-11-02T13:11:42.141Z,14.33
2022-11-02T13:15:47.712Z,14.27
2022-11-02T13:19:57.583Z,14.08
2022-11-02T13:24:00.999Z,14.05
2022-11-02T13:28:09.970Z,14.17
2022-11-02T13:32:32.462Z,14.22
2022-11-02T13:36:39.517Z,14.47
2022-11-02T13:40:57.978Z,14.41
2022-11-02T13:45:17.689Z,14.48
2022-11-02T13:49:43.979Z,14.54
2022-11-02T13:53:58.717Z,14.54
2022-11-02T13:58:00.966Z,14.44
2022-11-02T14:02:04.513Z,14.35
2022-11-02T14:06:12.735Z,14.05
2022-11-02T14:10:17.342Z,13.88
2022-11-02T14:14:20.733Z,13.77
2022-11-02T14:18:31.329Z,13.71
2022-11-02T14:22:33.622Z,13.46
2022-11-02T14:26:54.656Z,13.22
2022-11-02T14:30:56.594Z,13.09
2022-11-02T14:35:23.513Z,12.93
2022-11-02T14:39:43.596Z,12.69
2022-11-02T14:44:00.771Z,12.69
2022-11-02T14:48:05.143Z,12.62
2022-11-02T14:52:13.850Z,12.56
2022-11-02T14:56:15.871Z,12.35
2022-11-02T15:00:27.788Z,12.36
2022-11-02T15:04:33.337Z,12.27
2022-11-02T15:08:48.080Z,12.09
2022-11-02T15:12:50.148Z,11.97
2022-11-02T15:16:52.907Z,11.73
2022-11-02T15:21:10.313Z,11.41
2022-11-02T15:25:20.147Z,11.13
2022-11-02T15:29:34.447Z,10.89
2022-11-02T15:33:42.317Z,10.49
2022-11-02T15:38:03.461Z,10.33
2022-11-02T15:42:34.426Z,10.05
2022-11-02T15:46:49.275Z,9.93
2022-11-02T15:50:58.456Z,9.65
2022-11-02T15:55:19.121Z,9.41
2022-11-02T15:59:37.332Z,9.32
2022-11-02T16:03:47.737Z,9.11
2022-11-02T16:08:10.050Z,8.96
2022-11-02T16:12:18.992Z,8.88
2022-11-02T16:16:21.522Z,8.70
2022-11-02T16:20:33.769Z,8.59
2022-11-02T16:24:35.856Z,8.51
2022-11-02T16:28:39.084Z,8.39
2022-11-02T16:32:40.889Z,8.17
2022-11-02T16:36:43.077Z,8.14
2022-11-02T16:40:45.649Z,8.01
2022-11-02T16:44:55.689Z,7.97
2022-11-02T16:49:07.524Z,7.82
2022-11-02T16:53:29.324Z,7.75
2022-11-02T16:57:34.174Z,7.64
2022-11-02T17:01:39.351Z,7.52
2022-11-02T17:05:43.148Z,7.55
2022-11-02T17:09:52.119Z,7.42
2022-11-02T17:13:55.825Z,7.31
2022-11-02T17:18:10.077Z,7.21
2022-11-02T17:22:21.157Z,7.13
2022-11-02T17:26:23.306Z,7.18
2022-11-02T17:30:35.301Z,7.15
2022-11-02T17:34:37.508Z,7.18
2022-11-02T17:38:39.769Z,7.17
2022-11-02T17:43:00.854Z,7.08
2022-11-02T17:47:05.742Z,7.07
2022-11-02T17:51:12.007Z,7.00
2022-11-02T17:55:16.562Z,7.06
2022-11-02T17:59:19.029Z,7.22
2022-11-02T18:03:25.576Z,7.37
2022-11-02T18:07:30.469Z,7.57
2022-11-02T18:11:32.530Z,7.72
2022-11-02T18:15:34.880Z,7.87
2022-11-02T18:19:36.606Z,8.00
2022-11-02T18:23:40.776Z,8.20
2022-11-02T18:27:42.743Z,8.29
2022-11-02T18:31:44.840Z,8.42
2022-11-02T18:35:47.217Z,8.70
2022-11-02T18:39:49.683Z,8.84
2022-11-02T18:43:51.655Z,9.00
2022-11-02T18:47:56.217Z,9.25
2022-11-02T18:51:58.060Z,9.55
2022-11-02T18:56:04.447Z,9.94
2022-11-02T19:00:06.919Z,10.42
2022-11-02T19:04:15.992Z,10.60
2022-11-02T19:08:41.852Z,10.67
2022-11-02T19:12:43.955Z,10.93
2022-11-02T19:16:45.702Z,11.12
2022-11-02T19:20:47.673Z,11.27
2022-11-02T19:24:50.092Z,11.40
2022-11-02T19:28:52.071Z,11.54
2022-11-02T19:32:53.961Z,11.57
2022-11-02T19:36:56.300Z,11.58
2022-11-02T19:41:02.478Z,11.54
2022-11-02T19:45:05.630Z,11.67
2022-11-02T19:49:07.830Z,11.78
2022-11-02T19:53:09.729Z,11.85
2022-11-02T19:57:11.336Z,11.92
2022-11-02T20:01:16.686Z,11.85
2022-11-02T20:05:18.505Z,11.73
2022-11-02T20:09:20.587Z,11.84
2022-11-02T20:13:22.263Z,11.70
2022-11-02T20:17:32.022Z,11.60
2022-11-02T20:21:43.291Z,11.68
2022-11-02T20:25:47.100Z,11.79
2022-11-02T20:29:48.786Z,11.75
2022-11-02T20:33:51.564Z,11.66
2022-11-02T20:37:53.936Z,11.68
2022-11-02T20:41:57.228Z,11.63
2022-11-02T20:50:28.676Z,11.50
2022-11-02T20:54:30.500Z,11.54
2022-11-02T20:58:32.982Z,11.52
2022-11-02T21:02:35.146Z,11.29
2022-11-02T21:06:37.338Z,11.11
2022-11-02T21:10:39.388Z,10.98
2022-11-02T21:14:41.369Z,10.74
2022-11-02T21:18:43.020Z,10.74
2022-11-02T21:22:45.055Z,10.68
2022-11-02T21:26:46.754Z,10.63
2022-11-02T21:30:48.799Z,10.61
2022-11-02T21:34:50.558Z,10.51
2022-11-02T21:38:52.657Z,10.33
2022-11-02T21:42:54.385Z,10.10
2022-11-02T21:46:56.921Z,9.72
2022-11-02T21:51:09.358Z,9.46
2022-11-02T21:55:11.825Z,9.25
2022-11-02T21:59:13.518Z,9.21
2022-11-02T22:03:15.628Z,9.28
2022-11-02T22:07:17.365Z,9.13
2022-11-02T22:11:22.505Z,9.07
2022-11-02T22:15:24.202Z,9.05
2022-11-02T22:19:26.104Z,9.13
2022-11-02T22:23:28.086Z,9.10
2022-11-02T22:27:30.183Z,9.04
2022-11-02T22:31:37.499Z,8.93
2022-11-02T22:35:40.132Z,9.02
2022-11-02T22:39:43.471Z,9.08
2022-11-02T22:43:45.643Z,9.31
2022-11-02T22:47:47.300Z,9.40
2022-11-02T22:51:50.549Z,9.61
2022-11-02T22:56:07.729Z,9.72
2022-11-02T23:00:10.459Z,9.88
2022-11-02T23:04:12.527Z,9.86
2022-11-02T23:08:14.680Z,9.89
2022-11-02T23:12:16.341Z,9.97
2022-11-02T23:16:22.267Z,10.01
2022-11-02T23:20:23.958Z,10.04
2022-11-02T23:24:44.818Z,10.09
2022-11-02T23:29:05.318Z,10.16
2022-11-02T23:33:07.727Z,9.99
2022-11-02T23:37:09.846Z,9.86
2022-11-02T23:41:11.816Z,9.75
2022-11-02T23:45:13.485Z,9.80
2022-11-02T23:49:18.386Z,9.67
2022-11-02T23:53:42.195Z,9.51
2022-11-02T23:57:44.345Z,9.58
